Data for 09/17/2006

Time Sea-Level Adjusted Pressure Absolute Pressure Temperature Relative Humidity Dew Point   
(mb) (inHg) (mb) (inHg) (C) (F) (%) (C) (F)
00:05 1020 30.12 849 25.07 5.2 41.3 72 0.6 33.1
00:10 1020 30.12 849 25.07 5.2 41.3 71 0.4 32.7
00:15 1020 30.12 849 25.07 5.2 41.4 71 0.4 32.7
00:20 1020 30.12 850 25.1 5.2 41.3 71 0.3 32.6
00:25 1020 30.12 850 25.1 5.2 41.4 71 0.3 32.5
00:30 1020 30.12 850 25.1 5.2 41.3 71 0.3 32.6
00:35 1020 30.12 850 25.1 5.1 41.2 69 -0 31.9
00:40 1020 30.12 850 25.1 5.2 41.4 67 -0.3 31.4
00:45 1020 30.12 850 25.1 5.3 41.5 67 -0.4 31.3
00:50 1020 30.12 850 25.1 5.3 41.6 66 -0.5 31
00:55 1020 30.12 850 25.1 5.4 41.7 64 -0.8 30.6
01:00 1020 30.12 850 25.1 5.5 41.9 64 -0.9 30.5
01:05 1020 30.12 850 25.1 5.5 41.9 63 -0.9 30.4
01:10 1020 30.12 850 25.1 5.5 41.9 62 -1.2 29.8
01:15 1020 30.12 850 25.1 5.6 42 63 -0.9 30.5
01:20 1020 30.12 850 25.1 5.5 41.9 63 -0.8 30.5
01:25 1020 30.12 850 25.1 5.5 41.8 63 -1 30.1
01:30 1020 30.12 850 25.1 5.5 41.8 64 -0.9 30.4
01:35 1021 30.15 850 25.1 5.5 41.8 63 -1 30.2
01:40 1020 30.12 850 25.1 5.4 41.8 63 -1 30.2
01:45 1020 30.12 850 25.1 5.5 41.8 63 -1 30.1
01:50 1020 30.12 850 25.1 5.5 41.8 62 -1.1 29.9
01:55 1021 30.15 850 25.1 5.5 41.8 62 -1.3 29.7
02:00 1021 30.15 850 25.1 5.4 41.7 62 -1.2 29.9
02:05 1021 30.15 850 25.1 5.4 41.7 61 -1.4 29.4
02:10 1021 30.15 850 25.1 5.4 41.7 61 -1.5 29.3
02:15 1021 30.15 850 25.1 5.4 41.8 61 -1.5 29.3
02:20 1021 30.15 850 25.1 5.4 41.8 62 -1.3 29.7
02:25 1021 30.15 850 25.1 5.4 41.8 61 -1.5 29.3
02:30 1021 30.15 850 25.1 5.5 41.9 61 -1.3 29.7
02:35 1021 30.15 850 25.1 5.6 42 61 -1.3 29.7
02:40 1021 30.15 850 25.1 5.6 42.1 61 -1.3 29.7
02:45 1021 30.15 850 25.1 5.6 42.1 62 -1 30.1
02:50 1021 30.15 850 25.1 5.6 42 61 -1.3 29.7
02:55 1021 30.15 850 25.1 5.5 41.9 63 -0.9 30.3
03:00 1021 30.15 850 25.1 5.4 41.7 64 -0.9 30.4
03:05 1021 30.15 850 25.1 5.3 41.5 64 -1 30.2
03:10 1021 30.15 850 25.1 5.3 41.5 64 -1 30.2
03:15 1021 30.15 850 25.1 5.3 41.6 63 -1 30.1
03:20 1021 30.15 850 25.1 5.3 41.6 64 -1 30.2
03:25 1021 30.15 850 25.1 5.3 41.5 65 -0.8 30.5
03:30 1021 30.15 850 25.1 5.2 41.4 65 -0.9 30.4
03:35 1021 30.15 850 25.1 5.2 41.4 64 -0.9 30.3
03:40 1021 30.15 850 25.1 5.3 41.5 65 -0.8 30.6
03:45 1021 30.15 850 25.1 5.3 41.6 64 -0.8 30.5
03:50 1021 30.15 850 25.1 5.2 41.4 65 -0.9 30.4
03:55 1020 30.12 850 25.1 5.2 41.3 65 -0.9 30.4
04:00 1020 30.12 850 25.1 5.2 41.3 65 -0.9 30.5
04:05 1020 30.12 850 25.1 5.2 41.4 64 -0.9 30.3
04:10 1020 30.12 850 25.1 5.3 41.5 64 -0.9 30.3
04:15 1020 30.12 850 25.1 5.3 41.6 64 -0.9 30.4
04:20 1020 30.12 849 25.07 5.4 41.7 64 -0.8 30.5
04:25 1020 30.12 849 25.07 5.4 41.7 64 -0.8 30.6
04:30 1020 30.12 849 25.07 5.6 42 65 -0.5 31.2
04:35 1020 30.12 850 25.1 5.5 41.8 67 -0.2 31.7
04:40 1020 30.12 850 25.1 5.3 41.5 68 -0.1 31.8
04:45 1020 30.12 850 25.1 5 41 68 -0.3 31.4
04:50 1020 30.12 850 25.1 5.1 41.1 70 0.2 32.3
04:55 1020 30.12 850 25.1 5.1 41.2 71 0.2 32.4
05:00 1020 30.12 850 25.1 5.3 41.5 69 0.1 32.3
05:05 1020 30.12 849 25.07 5.3 41.5 70 0.3 32.6
05:10 1020 30.12 849 25.07 5.3 41.5 70 0.2 32.4
05:15 1020 30.12 850 25.1 5.3 41.6 69 0.1 32.2
05:20 1020 30.12 850 25.1 5.4 41.7 69 0.1 32.2
05:25 1020 30.12 849 25.07 5.4 41.7 67 -0.2 31.7
05:30 1020 30.12 849 25.07 5.4 41.7 67 -0.1 31.8
05:35 1020 30.12 849 25.07 5.4 41.8 68 0 32.1
05:40 1020 30.12 849 25.07 5.4 41.7 67 -0.2 31.7
05:45 1020 30.12 849 25.07 5.4 41.7 67 -0.1 31.8
05:50 1020 30.12 849 25.07 5.4 41.7 68 0 32
05:55 1020 30.12 850 25.1 5.4 41.6 70 0.2 32.4
06:00 1020 30.12 850 25.1 5.2 41.4 69 -0.1 31.9
06:05 1020 30.12 850 25.1 5.2 41.4 69 0.1 32.1
06:10 1020 30.12 850 25.1 5.2 41.3 68 -0.1 31.8
06:15 1020 30.12 850 25.1 5.1 41.2 68 -0.4 31.3
06:20 1020 30.12 850 25.1 5.2 41.3 68 -0.3 31.5
06:25 1020 30.12 850 25.1 5.1 41.3 68 -0.3 31.4
06:30 1020 30.12 850 25.1 5.2 41.3 67 -0.5 31.1
06:35 1020 30.12 850 25.1 5.2 41.4 67 -0.5 31.1
06:40 1020 30.12 850 25.1 5.2 41.3 67 -0.4 31.2
06:45 1020 30.12 850 25.1 5.3 41.5 66 -0.5 31.1
06:50 1020 30.12 850 25.1 5.3 41.6 68 -0.1 31.8
06:55 1020 30.12 850 25.1 5.3 41.6 64 -1 30.2
07:00 1020 30.12 850 25.1 5.4 41.7 63 -1.1 30.1
07:05 1021 30.15 850 25.1 5.4 41.8 60 -1.6 29.1
07:10 1021 30.15 850 25.1 5.5 41.9 60 -1.6 29.2
07:15 1021 30.15 850 25.1 5.6 42.2 59 -1.7 28.9
07:20 1021 30.15 850 25.1 5.7 42.2 58 -1.8 28.8
07:25 1021 30.15 850 25.1 5.7 42.3 58 -2 28.4
07:30 1021 30.15 850 25.1 5.7 42.2 56 -2.3 27.9
07:35 1021 30.15 850 25.1 5.7 42.3 57 -2.1 28.2
07:40 1021 30.15 850 25.1 5.8 42.4 57 -2.1 28.2
07:45 1021 30.15 850 25.1 5.8 42.4 57 -2 28.4
07:50 1021 30.15 850 25.1 5.7 42.3 57 -2.2 28
07:55 1021 30.15 850 25.1 5.7 42.3 57 -2.1 28.3
08:00 1021 30.15 850 25.1 5.8 42.4 57 -2.1 28.2
08:05 1021 30.15 850 25.1 5.9 42.6 56 -2.1 28.2
08:10 1021 30.15 850 25.1 5.9 42.6 56 -2.1 28.1
08:15 1021 30.15 850 25.1 5.9 42.6 53 -2.9 26.8
08:20 1021 30.15 850 25.1 6.1 43 52 -3.1 26.4
08:25 1021 30.15 850 25.1 6.3 43.4 50 -3.2 26.2
08:30 1021 30.15 850 25.1 6.4 43.5 50 -3.3 26
08:35 1021 30.15 850 25.1 6.4 43.6 48 -3.7 25.3
08:40 1021 30.15 850 25.1 6.5 43.7 49 -3.5 25.7
08:45 1021 30.15 850 25.1 6.5 43.7 50 -3.3 26.1
08:50 1021 30.15 850 25.1 6.5 43.7 49 -3.4 25.8
08:55 1021 30.15 850 25.1 6.4 43.6 49 -3.3 26
09:00 1021 30.15 850 25.1 6.4 43.5 50 -3.3 26
09:05 1021 30.15 850 25.1 6.4 43.6 50 -3.3 26
09:10 1021 30.15 850 25.1 6.5 43.7 50 -3.3 26.1
09:15 1021 30.15 850 25.1 6.6 43.8 48 -3.5 25.7
09:20 1021 30.15 850 25.1 6.6 44 48 -3.5 25.7
09:25 1021 30.15 850 25.1 6.6 43.9 49 -3.3 26.1
09:30 1021 30.15 850 25.1 6.6 43.8 49 -3.5 25.7
09:35 1021 30.15 850 25.1 6.6 43.8 50 -3.2 26.3
09:40 1021 30.15 850 25.1 6.6 43.9 49 -3.2 26.2
09:45 1021 30.15 850 25.1 6.6 43.9 49 -3.2 26.2
09:50 1021 30.15 850 25.1 6.7 44 49 -3.4 25.9
09:55 1021 30.15 850 25.1 6.6 44 49 -3.3 26.1
10:00 1021 30.15 850 25.1 6.6 43.9 50 -3.1 26.4
10:05 1021 30.15 850 25.1 6.6 43.9 49 -3.2 26.2
10:10 1021 30.15 850 25.1 6.6 43.9 49 -3.3 26
10:15 1021 30.15 850 25.1 6.7 44 49 -3.3 26.1
10:20 1021 30.15 850 25.1 6.7 44 48 -3.6 25.6
10:25 1021 30.15 850 25.1 6.7 44 50 -3.1 26.4
10:30 1021 30.15 850 25.1 6.6 43.9 50 -3 26.6
10:35 1021 30.15 850 25.1 6.6 43.9 51 -2.8 27
10:40 1021 30.15 850 25.1 6.6 43.9 51 -2.8 26.9
10:45 1021 30.15 850 25.1 6.7 44 51 -2.9 26.9
10:50 1021 30.15 850 25.1 6.7 44 51 -2.7 27.2
10:55 1021 30.15 850 25.1 6.7 44 51 -2.8 26.9
11:00 1021 30.15 850 25.1 6.7 44.1 52 -2.5 27.6
11:05 1021 30.15 850 25.1 6.8 44.2 51 -2.6 27.2
11:10 1021 30.15 850 25.1 6.9 44.3 51 -2.7 27.2
11:15 1021 30.15 850 25.1 6.9 44.4 51 -2.5 27.6
11:20 1021 30.15 850 25.1 6.9 44.4 50 -2.7 27.2
11:25 1021 30.15 850 25.1 6.9 44.4 51 -2.5 27.5
11:30 1021 30.15 850 25.1 6.9 44.4 51 -2.5 27.5
11:35 1021 30.15 850 25.1 6.9 44.4 52 -2.3 27.9
11:40 1021 30.15 850 25.1 7 44.6 52 -2.3 27.9
11:45 1021 30.15 850 25.1 7.1 44.8 52 -2.1 28.1
11:50 1021 30.15 850 25.1 7.2 45 50 -2.4 27.6
11:55 1021 30.15 850 25.1 7.3 45.1 50 -2.4 27.7
12:00 1021 30.15 850 25.1 7.3 45.2 51 -2.2 28
12:05 1021 30.15 850 25.1 7.3 45.1 51 -2.1 28.2
12:10 1021 30.15 850 25.1 7.2 44.9 52 -1.9 28.6
12:15 1021 30.15 850 25.1 7.4 45.2 50 -2.4 27.6
12:20 1021 30.15 850 25.1 7.5 45.5 47 -2.9 26.7
12:25 1021 30.15 850 25.1 7.8 46 46 -3 26.6
12:30 1021 30.15 850 25.1 8 46.3 46 -3 26.7
12:35 1021 30.15 850 25.1 8.1 46.5 47 -2.7 27.2
12:40 1021 30.15 850 25.1 8.2 46.7 46 -2.7 27.2
12:45 1021 30.15 850 25.1 8.4 47.1 45 -3 26.7
12:50 1021 30.15 850 25.1 8.4 47.2 44 -3 26.6
12:55 1021 30.15 850 25.1 8.4 47.2 44 -3 26.6
13:00 1021 30.15 850 25.1 8.3 46.9 43 -3.4 25.9
13:05 1021 30.15 851 25.13 8.3 46.9 44 -3.4 25.9
13:10 1021 30.15 851 25.13 8.2 46.8 44 -3.2 26.2
13:15 1021 30.15 851 25.13 8.3 46.9 44 -3.1 26.4
13:20 1021 30.15 851 25.13 8.4 47.2 46 -2.5 27.4
13:25 1021 30.15 851 25.13 8.6 47.5 45 -2.6 27.3
13:30 1021 30.15 851 25.13 8.7 47.6 44 -2.7 27.1
13:35 1021 30.15 851 25.13 8.6 47.4 45 -2.7 27.1
13:40 1021 30.15 851 25.13 8.6 47.5 44 -2.8 26.9
13:45 1021 30.15 850 25.1 8.9 47.9 42 -3.3 26
13:50 1021 30.15 850 25.1 9 48.2 43 -2.8 26.9
13:55 1021 30.15 850 25.1 9.1 48.3 42 -3 26.6
14:00 1021 30.15 850 25.1 9.1 48.5 41 -3.3 26.1
14:05 1021 30.15 850 25.1 9.3 48.7 40 -3.5 25.7
14:10 1021 30.15 850 25.1 9.3 48.7 42 -3.1 26.4
14:15 1021 30.15 850 25.1 9.4 48.8 41 -3.3 26
14:20 1021 30.15 850 25.1 9.5 49 41 -3.2 26.2
14:25 1021 30.15 850 25.1 9.4 48.8 41 -3.3 26
14:30 1021 30.15 850 25.1 9.6 49.3 42 -2.7 27.2
14:35 1021 30.15 850 25.1 9.8 49.6 40 -3.1 26.4
14:40 1021 30.15 850 25.1 9.9 49.9 39 -3.4 25.9
14:45 1021 30.15 850 25.1 10.1 50.3 40 -2.9 26.8
14:50 1021 30.15 850 25.1 9.9 49.8 39 -3.5 25.7
14:55 1021 30.15 850 25.1 9.8 49.6 38 -3.8 25.1
15:00 1021 30.15 850 25.1 9.9 49.9 39 -3.3 26
15:05 1021 30.15 850 25.1 9.9 49.9 39 -3.2 26.2
15:10 1021 30.15 850 25.1 9.7 49.5 40 -3.3 26
15:15 1021 30.15 850 25.1 9.7 49.5 40 -3.3 26
15:20 1021 30.15 850 25.1 9.7 49.5 39 -3.5 25.6
15:25 1021 30.15 850 25.1 9.7 49.5 40 -3.3 26.1
15:30 1021 30.15 850 25.1 9.9 49.7 39 -3.5 25.6
15:35 1021 30.15 850 25.1 9.9 49.8 40 -3.1 26.4
15:40 1021 30.15 850 25.1 9.9 49.9 40 -3.1 26.5
15:45 1021 30.15 850 25.1 9.8 49.7 39 -3.5 25.6
15:50 1021 30.15 850 25.1 9.8 49.6 39 -3.7 25.4
15:55 1021 30.15 850 25.1 9.9 49.7 38 -3.6 25.4
16:00 1021 30.15 850 25.1 10.1 50.1 39 -3.3 26
16:05 1021 30.15 850 25.1 10.1 50.2 38 -3.6 25.6
16:10 1021 30.15 850 25.1 10.1 50.1 38 -3.4 25.8
16:15 1021 30.15 850 25.1 10.2 50.3 37 -3.7 25.4
16:20 1021 30.15 850 25.1 10 50 38 -3.5 25.7
16:25 1021 30.15 850 25.1 10 49.9 39 -3.5 25.8
16:30 1021 30.15 850 25.1 10 50 39 -3.1 26.4
16:35 1021 30.15 850 25.1 10.2 50.3 41 -2.6 27.3
16:40 1021 30.15 850 25.1 10.3 50.6 40 -2.7 27.1
16:45 1021 30.15 850 25.1 10.3 50.5 41 -2.4 27.7
16:50 1021 30.15 850 25.1 10.3 50.6 39 -3.1 26.5
16:55 1021 30.15 850 25.1 10.3 50.5 39 -3.1 26.4
17:00 1021 30.15 850 25.1 10.2 50.4 40 -2.8 26.9
17:05 1021 30.15 850 25.1 10.1 50.1 39 -3.1 26.5
17:10 1021 30.15 850 25.1 10.1 50.2 40 -2.8 27
17:15 1021 30.15 850 25.1 10.1 50.2 41 -2.7 27.2
17:20 1021 30.15 850 25.1 10.1 50.1 41 -2.4 27.7
17:25 1021 30.15 850 25.1 10 50.1 41 -2.5 27.5
17:30 1021 30.15 850 25.1 10 50 43 -2 28.4
17:35 1021 30.15 850 25.1 9.9 49.8 41 -2.5 27.4
17:40 1021 30.15 850 25.1 9.9 49.8 43 -2.2 28.1
17:45 1021 30.15 850 25.1 9.9 49.8 43 -2.1 28.2
17:50 1021 30.15 850 25.1 9.9 49.8 43 -2.2 28.1
17:55 1021 30.15 850 25.1 9.8 49.6 43 -2.1 28.2
18:00 1021 30.15 850 25.1 9.7 49.4 44 -1.9 28.5
18:05 1021 30.15 850 25.1 9.6 49.4 45 -1.7 28.9
18:10 1021 30.15 850 25.1 9.7 49.4 45 -1.7 29
18:15 1021 30.15 850 25.1 9.6 49.3 46 -1.3 29.7
18:20 1021 30.15 850 25.1 9.5 49.1 47 -1.2 29.8
18:25 1021 30.15 850 25.1 9.4 48.9 47 -1.4 29.4
18:30 1021 30.15 850 25.1 9.3 48.8 47 -1.4 29.5
18:35 1021 30.15 850 25.1 9.4 48.9 47 -1.3 29.7
18:40 1021 30.15 851 25.13 9.4 48.9 47 -1.3 29.6
18:45 1021 30.15 851 25.13 9.4 49 47 -1.1 29.9
18:50 1021 30.15 851 25.13 9.4 48.9 47 -1.2 29.9
18:55 1021 30.15 851 25.13 9.4 48.9 48 -1 30.2
19:00 1022 30.18 851 25.13 9.4 49 48 -0.9 30.4
19:05 1022 30.18 851 25.13 9.5 49 49 -0.7 30.7
19:10 1022 30.18 851 25.13 9.5 49 47 -1.2 29.8
19:15 1022 30.18 851 25.13 9.4 48.8 49 -0.9 30.4
19:20 1022 30.18 851 25.13 9.5 49.1 48 -0.8 30.5
19:25 1022 30.18 851 25.13 9.4 48.9 50 -0.4 31.2
19:30 1022 30.18 851 25.13 8.9 48 54 0.1 32.1
19:35 1022 30.18 851 25.13 8.8 47.8 51 -0.7 30.8
19:40 1022 30.18 851 25.13 8.9 48 51 -0.5 31.1
19:45 1022 30.18 851 25.13 8.9 48.1 53 -0.1 31.7
19:50 1022 30.18 851 25.13 8.8 47.8 53 -0.2 31.6
19:55 1022 30.18 851 25.13 8.7 47.6 55 0.1 32.1
20:00 1022 30.18 851 25.13 8.6 47.5 54 -0.1 31.9
20:05 1022 30.18 851 25.13 8.6 47.4 55 0.1 32.2
20:10 1022 30.18 851 25.13 8.6 47.5 56 0.3 32.6
20:15 1022 30.18 851 25.13 8.4 47.1 56 0.2 32.3
20:20 1022 30.18 851 25.13 8.2 46.7 60 0.9 33.6
20:25 1022 30.18 851 25.13 8.1 46.5 59 0.5 32.8
20:30 1022 30.18 851 25.13 8.3 47 56 0.1 32.2
20:35 1022 30.18 851 25.13 8.4 47 58 0.5 32.9
20:40 1022 30.18 851 25.13 8 46.5 62 1.3 34.4
20:45 1022 30.18 851 25.13 7.6 45.6 64 1.2 34.2
20:50 1022 30.18 852 25.16 7.5 45.5 66 1.5 34.7
20:55 1022 30.18 852 25.16 7.5 45.4 63 0.9 33.6
21:00 1022 30.18 852 25.16 7.8 46 60 0.6 33
21:05 1022 30.18 852 25.16 8 46.5 59 0.5 32.8
21:10 1022 30.18 852 25.16 8.2 46.8 58 0.5 32.9
21:15 1022 30.18 852 25.16 8.2 46.8 58 0.4 32.8
21:20 1022 30.18 852 25.16 8.3 46.9 57 0.3 32.6
21:25 1022 30.18 852 25.16 8.4 47.1 57 0.3 32.5
21:30 1023 30.21 852 25.16 8.4 47.1 57 0.4 32.7
21:35 1023 30.21 852 25.16 8.2 46.8 58 0.5 32.9
21:40 1022 30.18 852 25.16 8.1 46.6 61 1 33.8
21:45 1022 30.18 852 25.16 7.9 46.2 61 0.9 33.6
21:50 1022 30.18 852 25.16 7.9 46.2 61 0.9 33.6
21:55 1022 30.18 852 25.16 7.9 46.2 61 0.8 33.4
22:00 1023 30.21 852 25.16 7.9 46.1 61 0.9 33.6
22:05 1023 30.21 852 25.16 7.8 46.1 62 1 33.8
22:10 1023 30.21 852 25.16 8 46.4 59 0.4 32.7
22:15 1023 30.21 852 25.16 8.2 46.7 57 0.3 32.5
22:20 1023 30.21 852 25.16 8.3 46.9 58 0.5 32.9
22:25 1023 30.21 852 25.16 8.4 47 58 0.6 33.1
22:30 1023 30.21 852 25.16 8.4 47.1 59 0.8 33.4
22:35 1023 30.21 852 25.16 8.4 47 56 0.2 32.3
22:40 1023 30.21 852 25.16 8.4 47.1 57 0.4 32.8
22:45 1023 30.21 852 25.16 8.4 47.1 58 0.6 33
22:50 1023 30.21 852 25.16 8.3 47 57 0.3 32.5
22:55 1023 30.21 852 25.16 8.4 47 56 0 32.1
23:00 1023 30.21 852 25.16 8.4 47.1 55 -0.1 31.8
23:05 1023 30.21 852 25.16 8.4 47.2 54 -0.2 31.6
23:10 1023 30.21 852 25.16 8.5 47.2 55 -0.1 31.7
23:15 1023 30.21 852 25.16 8.5 47.3 56 0.1 32.3
23:20 1023 30.21 852 25.16 8.4 47.1 58 0.7 33.2
23:25 1023 30.21 852 25.16 7.8 46 65 1.6 34.8
23:30 1023 30.21 852 25.16 7.3 45.2 65 1.2 34.2
23:35 1023 30.21 852 25.16 7.4 45.3 63 0.8 33.4
23:40 1023 30.21 852 25.16 7.7 45.8 59 0.1 32.2
23:45 1023 30.21 852 25.16 8 46.4 55 -0.5 31.1
23:50 1023 30.21 852 25.16 8.2 46.7 54 -0.5 31.1
23:55 1023 30.21 852 25.16 8.3 46.9 53 -0.7 30.7
24:00 1023 30.21 852 25.16 8.3 46.9 53 -0.7 30.8